Time;durP1;ratioP1;P1;durP2;ratioP2;P2;SDS_P1;SDS_P2;PMS_P1;PMS_P2;Temp;Humidity;BMP_temperature;BMP_pressure;BME280_temperature;BME280_humidity;BME280_pressure;Samples;Min_cycle;Max_cycle;Signal;HPM_P1;HPM_P2
2023/09/15 00:01:39;;;;;;;1.00;1.00;;;14.30;99.90;;;;;;5033514;28;20523;-81
2023/09/15 00:04:11;;;;;;;0.50;0.50;;;14.20;99.90;;;;;;5031138;28;20478;-82
2023/09/15 00:06:39;;;;;;;1.20;1.20;;;14.30;99.90;;;;;;5023726;28;20843;-81
2023/09/15 00:09:15;;;;;;;1.00;1.00;;;14.30;99.90;;;;;;5025654;28;20475;-83
2023/09/15 00:11:42;;;;;;;1.50;1.47;;;14.30;99.90;;;;;;5034419;28;20515;-83
2023/09/15 00:14:13;;;;;;;2.13;2.00;;;14.30;99.90;;;;;;5024288;28;20453;-82
2023/09/15 00:16:44;;;;;;;1.10;1.10;;;14.30;99.90;;;;;;5029848;28;20450;-80
2023/09/15 00:19:14;;;;;;;1.90;1.63;;;14.30;99.90;;;;;;5028082;28;20472;-79
2023/09/15 00:21:47;;;;;;;1.37;1.33;;;14.30;99.90;;;;;;5022528;28;20872;-82
2023/09/15 00:24:16;;;;;;;0.83;0.83;;;14.20;99.90;;;;;;5023170;28;20474;-80
2023/09/15 00:26:43;;;;;;;0.70;0.70;;;14.20;99.90;;;;;;5014485;28;20924;-81
2023/09/15 00:29:11;;;;;;;1.37;1.37;;;14.20;99.90;;;;;;5028026;28;20417;-81
2023/09/15 00:31:39;;;;;;;1.23;1.23;;;14.20;99.90;;;;;;5037645;28;20466;-81
2023/09/15 00:34:07;;;;;;;1.23;1.23;;;14.20;99.90;;;;;;5040812;28;20498;-79
2023/09/15 00:36:34;;;;;;;0.93;0.93;;;14.20;99.90;;;;;;5037015;28;20450;-81
2023/09/15 00:39:02;;;;;;;0.80;0.80;;;14.30;99.90;;;;;;5048240;28;20438;-81
2023/09/15 00:41:29;;;;;;;1.23;1.23;;;14.30;99.90;;;;;;5049461;28;20504;-82
2023/09/15 00:43:56;;;;;;;1.90;1.80;;;14.30;99.90;;;;;;5029169;28;20526;-78
2023/09/15 00:46:23;;;;;;;2.07;1.97;;;14.30;99.90;;;;;;5032852;28;20470;-82
2023/09/15 00:48:51;;;;;;;2.13;2.03;;;14.30;99.90;;;;;;5019825;28;20513;-81
2023/09/15 00:51:21;;;;;;;2.80;2.60;;;14.30;99.90;;;;;;5024718;28;20641;-80
2023/09/15 00:53:49;;;;;;;1.03;1.03;;;14.30;99.90;;;;;;5018614;28;20509;-80
2023/09/15 00:56:17;;;;;;;0.60;0.60;;;14.30;99.90;;;;;;5026183;28;20488;-82
2023/09/15 00:58:46;;;;;;;1.10;1.10;;;14.30;99.90;;;;;;5031091;28;20521;-80
2023/09/15 01:01:14;;;;;;;2.23;2.13;;;14.30;99.90;;;;;;5023428;28;20528;-82
2023/09/15 01:03:45;;;;;;;2.97;2.70;;;14.30;99.90;;;;;;5027437;28;20467;-82
2023/09/15 01:06:13;;;;;;;1.83;1.73;;;14.30;99.90;;;;;;5031874;28;20655;-82
2023/09/15 01:08:41;;;;;;;1.00;1.00;;;14.40;99.90;;;;;;5018913;28;20449;-83
2023/09/15 01:11:10;;;;;;;1.80;1.70;;;14.30;99.90;;;;;;5032338;28;20460;-81
2023/09/15 01:13:37;;;;;;;1.30;1.30;;;14.30;99.90;;;;;;5027475;28;20441;-81
2023/09/15 01:16:28;;;;;;;0.93;0.93;;;14.30;99.90;;;;;;5022557;28;20475;-82
2023/09/15 01:19:26;;;;;;;2.10;2.00;;;14.30;99.90;;;;;;5015167;28;20447;-83
2023/09/15 01:22:40;;;;;;;0.70;0.70;;;14.30;99.90;;;;;;5002961;28;20903;-82
2023/09/15 01:25:32;;;;;;;0.70;0.70;;;14.30;99.90;;;;;;5018675;28;20496;-82
2023/09/15 01:28:20;;;;;;;1.33;1.23;;;14.30;99.90;;;;;;5032196;28;20434;-80
2023/09/15 01:30:50;;;;;;;0.80;0.80;;;14.30;99.90;;;;;;5020089;28;20793;-80
2023/09/15 01:33:19;;;;;;;1.67;1.57;;;14.30;99.90;;;;;;5029777;28;20516;-82
2023/09/15 01:35:46;;;;;;;0.73;0.73;;;14.30;99.90;;;;;;5028017;28;20434;-83
2023/09/15 01:38:13;;;;;;;1.33;1.33;;;14.30;99.90;;;;;;5017232;28;20455;-81
2023/09/15 01:40:40;;;;;;;1.53;1.43;;;14.40;99.90;;;;;;5026449;28;20508;-84
2023/09/15 01:43:07;;;;;;;1.10;1.10;;;14.40;99.90;;;;;;5026963;28;20443;-83
2023/09/15 01:45:34;;;;;;;3.17;1.83;;;14.40;99.90;;;;;;5033662;28;20762;-82
2023/09/15 01:48:02;;;;;;;1.83;1.73;;;14.30;99.90;;;;;;5020833;28;20604;-78
2023/09/15 01:50:31;;;;;;;2.00;1.90;;;14.40;99.90;;;;;;5018686;28;20841;-84
2023/09/15 01:52:58;;;;;;;1.30;1.30;;;14.40;99.90;;;;;;5026902;28;20466;-81
2023/09/15 01:55:27;;;;;;;1.10;1.03;;;14.40;99.90;;;;;;5023920;28;20446;-83
2023/09/15 01:57:54;;;;;;;0.80;0.80;;;14.40;99.90;;;;;;5037821;28;20495;-83
2023/09/15 02:00:31;;;;;;;0.50;0.50;;;14.40;99.90;;;;;;5031312;28;20430;-83
2023/09/15 02:02:58;;;;;;;1.20;0.90;;;14.40;99.90;;;;;;5023035;28;20560;-82
2023/09/15 02:05:25;;;;;;;0.63;0.63;;;14.40;99.90;;;;;;5024438;28;20462;-83
2023/09/15 02:07:52;;;;;;;0.73;0.73;;;14.40;99.90;;;;;;5006817;28;20484;-83
2023/09/15 02:10:19;;;;;;;0.90;0.90;;;14.40;99.90;;;;;;5020991;28;20447;-85
2023/09/15 02:12:47;;;;;;;1.20;1.20;;;14.40;99.90;;;;;;5034199;28;20459;-82
2023/09/15 02:15:14;;;;;;;1.97;1.80;;;14.40;99.90;;;;;;5033453;28;20478;-80
2023/09/15 02:17:42;;;;;;;0.87;0.87;;;14.40;99.90;;;;;;5028793;28;20445;-80
2023/09/15 02:20:11;;;;;;;0.70;0.70;;;14.50;99.90;;;;;;5027762;28;20534;-81
2023/09/15 02:22:41;;;;;;;0.80;0.80;;;14.40;99.90;;;;;;5021470;28;20506;-80
2023/09/15 02:25:11;;;;;;;2.10;1.80;;;14.40;99.90;;;;;;5019117;28;20510;-81
2023/09/15 02:27:39;;;;;;;1.67;1.57;;;14.40;99.90;;;;;;5021611;28;20450;-80
2023/09/15 02:30:06;;;;;;;0.60;0.60;;;14.40;99.90;;;;;;5019871;28;20834;-80
2023/09/15 02:32:34;;;;;;;0.80;0.80;;;14.40;99.90;;;;;;5024855;28;20524;-80
2023/09/15 02:35:02;;;;;;;1.53;1.43;;;14.50;99.90;;;;;;5009447;28;20450;-84
2023/09/15 02:37:30;;;;;;;1.70;1.60;;;14.40;99.90;;;;;;5022140;28;20487;-81
2023/09/15 02:39:57;;;;;;;1.70;1.70;;;14.40;99.90;;;;;;5013187;28;20449;-82
2023/09/15 02:42:24;;;;;;;0.60;0.60;;;14.50;99.90;;;;;;5016358;28;20477;-80
2023/09/15 02:44:51;;;;;;;1.17;1.17;;;14.50;99.90;;;;;;5011348;28;20438;-80
2023/09/15 02:47:18;;;;;;;0.60;0.60;;;14.50;99.90;;;;;;5019702;28;20454;-82
2023/09/15 02:49:46;;;;;;;1.00;1.00;;;14.50;99.90;;;;;;5035680;28;20456;-83
2023/09/15 02:52:12;;;;;;;1.27;1.23;;;14.40;99.90;;;;;;5021516;28;20462;-83
2023/09/15 02:54:39;;;;;;;1.63;1.53;;;14.40;99.90;;;;;;5030877;28;20487;-82
2023/09/15 02:57:06;;;;;;;1.13;1.13;;;14.40;99.90;;;;;;5027553;28;20802;-81
2023/09/15 02:59:34;;;;;;;0.50;0.50;;;14.40;99.90;;;;;;5032028;28;20530;-82
2023/09/15 03:02:00;;;;;;;0.60;0.60;;;14.50;99.90;;;;;;5014154;28;20979;-82
2023/09/15 03:04:28;;;;;;;3.93;1.97;;;14.40;99.90;;;;;;5016174;28;20687;-82
2023/09/15 03:06:55;;;;;;;1.07;0.90;;;14.40;99.90;;;;;;5031284;28;20449;-83
2023/09/15 03:09:22;;;;;;;1.37;1.27;;;14.40;99.90;;;;;;5028969;28;20424;-81
2023/09/15 03:11:49;;;;;;;1.37;1.27;;;14.40;99.90;;;;;;5021820;28;21308;-82
2023/09/15 03:14:18;;;;;;;1.00;1.00;;;14.30;99.90;;;;;;5018508;28;20486;-79
2023/09/15 03:16:45;;;;;;;1.63;1.53;;;14.30;99.90;;;;;;5009972;28;20457;-79
2023/09/15 03:19:13;;;;;;;0.70;0.70;;;14.40;99.90;;;;;;5013280;28;20452;-81
2023/09/15 03:21:41;;;;;;;2.10;2.00;;;14.30;99.90;;;;;;5017199;28;20482;-79
2023/09/15 03:24:08;;;;;;;0.70;0.70;;;14.30;99.90;;;;;;5014980;28;20514;-80
2023/09/15 03:26:35;;;;;;;0.67;0.67;;;14.30;99.90;;;;;;5009833;28;20500;-81
2023/09/15 03:29:02;;;;;;;1.80;1.70;;;14.30;99.90;;;;;;5014088;28;20794;-81
2023/09/15 03:31:30;;;;;;;3.13;2.67;;;14.30;99.90;;;;;;5005826;28;20457;-78
2023/09/15 03:33:57;;;;;;;1.50;1.40;;;14.30;99.90;;;;;;5001951;28;20443;-81
2023/09/15 03:36:28;;;;;;;2.50;2.40;;;14.20;99.90;;;;;;5022990;28;20485;-79
2023/09/15 03:38:58;;;;;;;1.07;1.07;;;14.10;99.90;;;;;;5015730;28;20451;-81
2023/09/15 03:41:27;;;;;;;1.20;1.20;;;14.20;99.90;;;;;;5012540;28;20841;-81
2023/09/15 03:43:55;;;;;;;1.07;1.07;;;14.30;99.90;;;;;;5011815;28;20494;-81
2023/09/15 03:46:23;;;;;;;1.23;1.13;;;14.30;99.90;;;;;;5011697;28;20452;-82
2023/09/15 03:48:51;;;;;;;0.50;0.50;;;14.20;99.90;;;;;;5018452;28;20487;-80
2023/09/15 03:51:19;;;;;;;1.00;1.00;;;14.20;99.90;;;;;;5019669;28;20438;-82
2023/09/15 03:53:45;;;;;;;0.50;0.50;;;14.20;99.90;;;;;;5019643;28;20486;-80
2023/09/15 03:56:12;;;;;;;2.00;1.90;;;14.10;99.90;;;;;;5020395;28;20458;-79
2023/09/15 03:58:39;;;;;;;2.33;2.13;;;14.10;99.90;;;;;;5022031;28;20682;-80
2023/09/15 04:01:08;;;;;;;2.70;2.50;;;14.30;99.90;;;;;;5024739;28;20458;-81
2023/09/15 04:03:36;;;;;;;1.00;1.00;;;14.20;99.90;;;;;;5032429;28;20514;-80
2023/09/15 04:06:04;;;;;;;0.80;0.80;;;14.30;99.90;;;;;;5026981;28;20453;-79
2023/09/15 04:08:31;;;;;;;0.80;0.80;;;14.30;99.90;;;;;;5019493;28;20796;-80
2023/09/15 04:10:59;;;;;;;0.70;0.70;;;14.30;99.90;;;;;;5023659;28;20443;-81
2023/09/15 04:13:26;;;;;;;1.37;1.27;;;14.30;99.90;;;;;;5008332;28;20845;-81
2023/09/15 04:15:56;;;;;;;0.70;0.70;;;14.30;99.90;;;;;;5017052;28;20464;-81
2023/09/15 04:18:23;;;;;;;0.57;0.57;;;14.30;99.90;;;;;;5013351;28;20487;-82
2023/09/15 04:20:50;;;;;;;0.60;0.60;;;14.30;99.90;;;;;;5023761;28;20474;-81
2023/09/15 04:23:18;;;;;;;0.60;0.60;;;14.30;99.90;;;;;;5019612;28;20520;-81
2023/09/15 04:25:45;;;;;;;3.60;2.73;;;14.30;99.90;;;;;;5031089;28;20452;-79
2023/09/15 04:28:13;;;;;;;2.30;2.20;;;14.30;99.90;;;;;;5016523;28;20886;-81
2023/09/15 04:30:40;;;;;;;1.00;1.00;;;14.30;99.90;;;;;;5006752;28;20454;-81
2023/09/15 04:33:07;;;;;;;1.37;1.33;;;14.30;99.90;;;;;;5015728;28;20456;-81
2023/09/15 04:35:34;;;;;;;2.77;2.50;;;14.30;99.90;;;;;;5014185;28;20506;-83
2023/09/15 04:38:02;;;;;;;0.70;0.70;;;14.30;99.90;;;;;;5027188;28;20516;-81
2023/09/15 04:40:29;;;;;;;0.60;0.60;;;14.30;99.90;;;;;;5013269;28;20692;-80
2023/09/15 04:42:56;;;;;;;0.67;0.67;;;14.30;99.90;;;;;;5010875;28;20485;-81
2023/09/15 04:45:24;;;;;;;1.77;1.67;;;14.40;99.90;;;;;;5009634;28;21020;-80
2023/09/15 04:47:51;;;;;;;0.77;0.77;;;14.40;99.90;;;;;;5006954;28;20525;-81
2023/09/15 04:50:18;;;;;;;1.57;1.47;;;14.40;99.90;;;;;;5010250;28;20448;-81
2023/09/15 04:52:45;;;;;;;1.40;1.30;;;14.40;99.90;;;;;;5029499;28;20449;-82
2023/09/15 04:55:12;;;;;;;0.83;0.83;;;14.50;99.90;;;;;;5021308;28;20450;-80
2023/09/15 04:57:41;;;;;;;0.90;0.90;;;14.50;99.90;;;;;;5015275;28;20771;-80
2023/09/15 05:00:12;;;;;;;1.27;1.27;;;14.50;99.90;;;;;;5015589;28;20473;-80
2023/09/15 05:02:45;;;;;;;0.60;0.60;;;14.50;99.90;;;;;;5030409;28;20520;-81
2023/09/15 05:05:12;;;;;;;1.27;1.27;;;14.50;99.90;;;;;;5030136;28;20958;-84
2023/09/15 05:07:40;;;;;;;1.20;1.20;;;14.50;99.90;;;;;;5025225;28;20521;-81
2023/09/15 05:10:08;;;;;;;1.17;1.17;;;14.50;99.90;;;;;;5026308;28;20542;-81
2023/09/15 05:12:35;;;;;;;1.33;1.23;;;14.60;99.90;;;;;;5020412;28;20442;-82
2023/09/15 05:15:03;;;;;;;0.60;0.60;;;14.60;99.90;;;;;;5023996;28;20641;-81
2023/09/15 05:17:30;;;;;;;2.63;2.30;;;14.70;99.90;;;;;;5025341;28;20517;-81
2023/09/15 05:19:57;;;;;;;0.63;0.63;;;14.60;99.90;;;;;;5011773;28;20446;-82
2023/09/15 05:22:24;;;;;;;1.90;1.80;;;14.80;99.90;;;;;;5037896;28;20571;-83
2023/09/15 05:24:52;;;;;;;1.30;1.20;;;14.90;99.90;;;;;;5025663;28;20450;-81
2023/09/15 05:27:22;;;;;;;3.37;3.17;;;15.00;99.90;;;;;;5032234;28;20427;-82
2023/09/15 05:29:50;;;;;;;1.13;1.07;;;15.00;99.90;;;;;;5038566;28;20769;-82
2023/09/15 05:32:18;;;;;;;1.23;1.23;;;15.20;99.90;;;;;;5025059;28;20782;-83
2023/09/15 05:34:45;;;;;;;1.17;1.17;;;15.20;99.90;;;;;;5029796;28;20521;-81
2023/09/15 05:37:13;;;;;;;1.17;1.17;;;15.40;99.90;;;;;;5012936;28;20490;-82
2023/09/15 05:39:40;;;;;;;1.20;1.20;;;15.40;99.90;;;;;;5028436;28;20445;-82
2023/09/15 05:42:07;;;;;;;3.30;1.53;;;15.60;99.90;;;;;;5028254;28;20493;-82
2023/09/15 05:44:34;;;;;;;1.33;1.33;;;15.70;99.90;;;;;;5027479;28;20513;-83
2023/09/15 05:47:01;;;;;;;1.13;1.13;;;15.90;99.90;;;;;;5023425;28;20513;-83
2023/09/15 05:49:28;;;;;;;1.40;1.30;;;16.00;99.90;;;;;;5017146;28;20451;-83
2023/09/15 05:51:56;;;;;;;1.10;1.10;;;16.20;99.90;;;;;;5032306;28;20521;-83
2023/09/15 05:54:26;;;;;;;1.33;1.27;;;16.30;99.90;;;;;;5018804;28;20447;-81
2023/09/15 05:56:53;;;;;;;0.60;0.60;;;16.30;99.90;;;;;;5020427;28;20468;-82
2023/09/15 05:59:20;;;;;;;2.30;2.20;;;16.40;99.90;;;;;;5024496;28;20447;-82
2023/09/15 06:01:47;;;;;;;1.33;1.23;;;16.50;99.90;;;;;;5024915;28;20740;-82
2023/09/15 06:04:15;;;;;;;1.13;1.03;;;16.70;99.90;;;;;;5027372;28;20436;-83
2023/09/15 06:06:42;;;;;;;1.23;1.23;;;16.90;99.90;;;;;;5021050;28;20410;-81
2023/09/15 06:09:09;;;;;;;0.70;0.70;;;17.10;99.90;;;;;;5037493;28;20767;-85
2023/09/15 06:11:36;;;;;;;1.00;1.00;;;17.20;99.90;;;;;;5019752;28;20589;-83
2023/09/15 06:14:03;;;;;;;0.80;0.80;;;17.50;99.90;;;;;;5043766;28;20432;-84
2023/09/15 06:16:33;;;;;;;1.10;1.10;;;17.70;99.90;;;;;;5035903;28;20430;-86
2023/09/15 06:19:02;;;;;;;2.93;2.77;;;18.00;99.90;;;;;;5031624;28;20436;-82
2023/09/15 06:21:29;;;;;;;3.67;3.37;;;18.40;99.90;;;;;;5032400;28;20435;-85
2023/09/15 06:23:56;;;;;;;3.10;2.07;;;18.90;99.90;;;;;;5026415;28;20798;-81
2023/09/15 06:26:24;;;;;;;1.30;1.23;;;19.20;99.90;;;;;;5027602;28;20440;-81
2023/09/15 06:28:51;;;;;;;0.83;0.83;;;19.50;99.90;;;;;;5025057;28;20418;-81
2023/09/15 06:31:23;;;;;;;1.73;1.63;;;19.90;99.90;;;;;;5031823;28;20404;-87
2023/09/15 06:33:49;;;;;;;2.73;2.63;;;19.90;99.90;;;;;;5029069;28;20426;-85
2023/09/15 06:36:16;;;;;;;1.33;1.23;;;19.60;99.90;;;;;;5017788;28;21137;-79
2023/09/15 06:38:43;;;;;;;0.70;0.70;;;19.00;99.90;;;;;;5025646;28;20455;-82
2023/09/15 06:41:10;;;;;;;0.83;0.83;;;19.40;99.90;;;;;;5024278;28;20455;-81
2023/09/15 06:43:37;;;;;;;0.77;0.77;;;19.50;99.90;;;;;;5023322;28;20489;-83
2023/09/15 06:46:07;;;;;;;2.37;2.27;;;19.00;99.90;;;;;;5020866;28;20763;-86
2023/09/15 06:48:34;;;;;;;0.70;0.70;;;18.70;99.90;;;;;;5020220;28;20440;-84
2023/09/15 06:51:01;;;;;;;0.90;0.90;;;18.60;99.90;;;;;;5010531;28;20476;-83
2023/09/15 06:53:29;;;;;;;0.80;0.80;;;18.60;99.90;;;;;;5023015;28;20465;-85
2023/09/15 06:55:57;;;;;;;1.07;1.07;;;18.40;99.90;;;;;;5028453;28;20920;-84
2023/09/15 06:58:24;;;;;;;0.90;0.90;;;18.50;99.90;;;;;;5027087;28;20449;-79
2023/09/15 07:00:54;;;;;;;1.20;1.10;;;18.20;99.90;;;;;;5030393;28;20446;-83
2023/09/15 07:03:24;;;;;;;1.33;1.33;;;18.20;99.90;;;;;;5019775;28;20480;-79
2023/09/15 07:05:53;;;;;;;0.80;0.80;;;18.00;99.90;;;;;;5030173;28;20716;-87
2023/09/15 07:08:20;;;;;;;0.73;0.73;;;18.00;99.90;;;;;;5034484;28;20537;-81
2023/09/15 07:10:51;;;;;;;0.97;0.97;;;18.10;99.90;;;;;;5030903;28;20508;-86
2023/09/15 07:13:22;;;;;;;0.60;0.60;;;18.30;99.90;;;;;;5029189;28;20782;-88
2023/09/15 07:15:50;;;;;;;1.33;1.27;;;18.20;99.90;;;;;;5038120;28;20426;-83
2023/09/15 07:18:18;;;;;;;1.03;1.00;;;18.50;99.90;;;;;;5017444;28;20429;-81
2023/09/15 07:20:45;;;;;;;1.40;1.40;;;18.90;99.90;;;;;;5029078;28;20518;-79
2023/09/15 07:23:14;;;;;;;1.47;1.23;;;18.90;99.90;;;;;;5026642;28;20482;-84
2023/09/15 07:25:48;;;;;;;1.13;1.13;;;18.70;99.90;;;;;;5026568;28;20450;-84
2023/09/15 07:28:15;;;;;;;1.33;1.33;;;18.80;99.90;;;;;;5023698;28;20528;-83
2023/09/15 07:30:42;;;;;;;0.70;0.70;;;18.70;99.90;;;;;;5031446;28;20529;-80
2023/09/15 07:33:10;;;;;;;0.67;0.67;;;18.70;99.90;;;;;;5026098;28;20451;-83
2023/09/15 07:35:37;;;;;;;0.93;0.93;;;18.90;99.90;;;;;;5023873;28;20421;-80
2023/09/15 07:38:04;;;;;;;1.93;1.83;;;19.10;99.90;;;;;;5031935;28;20451;-82
2023/09/15 07:40:31;;;;;;;1.80;1.70;;;18.90;99.90;;;;;;5005353;28;20876;-81
2023/09/15 07:42:59;;;;;;;8.50;3.27;;;18.80;99.90;;;;;;5007304;28;20758;-81
2023/09/15 07:45:27;;;;;;;3.00;1.40;;;18.60;99.90;;;;;;5021151;28;20446;-82
2023/09/15 07:47:53;;;;;;;1.53;1.47;;;18.60;99.90;;;;;;5031086;28;20475;-81
2023/09/15 07:50:20;;;;;;;0.97;0.97;;;18.80;99.90;;;;;;5011729;28;20436;-86
2023/09/15 07:52:48;;;;;;;0.87;0.87;;;18.90;99.90;;;;;;5022905;28;20514;-82
2023/09/15 07:55:15;;;;;;;2.00;1.90;;;19.10;99.90;;;;;;5020769;28;20494;-86
2023/09/15 07:57:42;;;;;;;1.43;1.33;;;19.20;99.90;;;;;;5005923;28;20806;-80
2023/09/15 08:00:10;;;;;;;0.90;0.90;;;19.20;99.90;;;;;;5017143;28;20647;-82
2023/09/15 08:02:39;;;;;;;0.70;0.70;;;19.20;99.90;;;;;;5027449;28;20472;-83
2023/09/15 08:05:06;;;;;;;0.67;0.67;;;19.20;99.90;;;;;;5026957;28;20454;-84
2023/09/15 08:07:34;;;;;;;0.70;0.70;;;19.60;99.90;;;;;;5028349;28;20488;-80
2023/09/15 08:10:01;;;;;;;1.20;1.20;;;19.60;99.90;;;;;;5015447;28;20438;-79
2023/09/15 08:12:28;;;;;;;0.63;0.63;;;19.80;99.90;;;;;;5030391;28;20438;-82
2023/09/15 08:15:00;;;;;;;0.93;0.93;;;20.30;99.90;;;;;;5019347;28;20550;-87
2023/09/15 08:17:27;;;;;;;0.80;0.80;;;20.90;99.90;;;;;;5028934;28;20433;-84
2023/09/15 08:20:01;;;;;;;0.70;0.70;;;21.10;99.90;;;;;;5023824;28;20622;-83
2023/09/15 08:22:32;;;;;;;3.77;2.70;;;21.90;99.90;;;;;;5016698;28;20472;-83
2023/09/15 08:25:01;;;;;;;0.80;0.80;;;22.00;99.90;;;;;;5022753;28;20483;-86
2023/09/15 08:27:28;;;;;;;1.00;1.00;;;21.50;99.90;;;;;;5033831;28;20409;-78
2023/09/15 08:29:55;;;;;;;1.00;1.00;;;21.80;99.90;;;;;;5010898;28;20576;-82
2023/09/15 08:32:23;;;;;;;0.90;0.90;;;21.80;99.90;;;;;;5025163;28;20420;-79
2023/09/15 08:34:49;;;;;;;1.90;1.80;;;21.90;99.90;;;;;;5015491;28;20473;-79
2023/09/15 08:37:17;;;;;;;1.50;1.40;;;21.80;99.90;;;;;;5012619;28;20422;-85
2023/09/15 08:39:45;;;;;;;1.00;1.00;;;21.90;99.90;;;;;;5028681;28;20446;-83
2023/09/15 08:42:17;;;;;;;0.90;0.90;;;21.70;99.90;;;;;;5012903;28;21081;-80
2023/09/15 08:44:46;;;;;;;1.00;1.00;;;21.30;99.90;;;;;;5016950;28;20477;-79
2023/09/15 08:47:14;;;;;;;0.93;0.93;;;21.30;99.90;;;;;;5029069;28;20484;-79
2023/09/15 08:49:44;;;;;;;1.23;1.20;;;21.40;99.90;;;;;;5031013;28;20410;-84
2023/09/15 08:52:18;;;;;;;1.07;1.07;;;21.80;99.90;;;;;;5019652;28;20530;-83
2023/09/15 08:54:46;;;;;;;0.90;0.90;;;21.60;99.90;;;;;;5034225;28;20770;-83
2023/09/15 08:57:30;;;;;;;1.30;1.30;;;21.40;99.90;;;;;;5021510;28;20489;-78
2023/09/15 08:59:59;;;;;;;1.13;1.13;;;21.60;99.90;;;;;;5030052;28;20493;-82
2023/09/15 09:02:26;;;;;;;0.90;0.90;;;21.40;99.90;;;;;;5026663;28;20446;-80
2023/09/15 09:04:54;;;;;;;2.40;2.23;;;22.10;99.90;;;;;;5032571;28;20484;-85
2023/09/15 09:07:23;;;;;;;1.13;1.13;;;22.20;99.90;;;;;;5020312;28;20502;-80
2023/09/15 09:09:51;;;;;;;0.90;0.90;;;22.10;99.90;;;;;;5021500;28;20475;-82
2023/09/15 09:12:18;;;;;;;2.83;2.10;;;22.40;99.90;;;;;;5008767;28;20434;-80
2023/09/15 09:14:54;;;;;;;0.90;0.90;;;22.10;99.90;;;;;;5019707;28;20477;-80
2023/09/15 09:17:23;;;;;;;1.43;1.20;;;21.50;99.90;;;;;;5013488;28;20661;-87
2023/09/15 09:19:50;;;;;;;0.90;0.90;;;21.40;99.90;;;;;;5017843;28;20426;-78
2023/09/15 09:22:19;;;;;;;2.03;1.93;;;21.30;99.90;;;;;;5015243;28;20450;-77
2023/09/15 09:24:55;;;;;;;0.70;0.70;;;21.20;99.90;;;;;;5015569;28;20788;-85
2023/09/15 09:27:34;;;;;;;1.20;1.20;;;21.00;99.90;;;;;;5027777;28;20500;-80
2023/09/15 09:30:03;;;;;;;0.80;0.80;;;21.00;99.90;;;;;;5012159;28;20438;-86
2023/09/15 09:32:30;;;;;;;2.53;2.37;;;21.10;99.90;;;;;;5016289;28;20618;-78
2023/09/15 09:34:59;;;;;;;1.37;1.37;;;21.20;99.90;;;;;;5022295;28;20609;-80
2023/09/15 09:37:26;;;;;;;0.80;0.80;;;21.40;99.90;;;;;;5023919;28;20882;-86
2023/09/15 09:39:53;;;;;;;1.30;1.30;;;21.50;99.90;;;;;;5028848;28;20457;-82
2023/09/15 09:42:26;;;;;;;1.20;1.20;;;21.70;99.90;;;;;;5024454;28;20893;-84
2023/09/15 09:44:55;;;;;;;0.80;0.80;;;21.90;99.90;;;;;;5022408;28;20457;-84
2023/09/15 09:47:34;;;;;;;1.00;1.00;;;21.70;99.90;;;;;;5011150;28;20441;-84
2023/09/15 09:50:06;;;;;;;0.80;0.80;;;22.10;99.90;;;;;;5025320;28;20475;-85
2023/09/15 09:52:33;;;;;;;0.80;0.80;;;22.20;99.90;;;;;;5021218;28;20450;-81
2023/09/15 09:55:08;;;;;;;1.20;1.20;;;21.90;99.90;;;;;;5009808;28;20502;-79
2023/09/15 09:57:37;;;;;;;0.70;0.70;;;22.10;99.90;;;;;;5009231;28;20422;-84
2023/09/15 10:00:09;;;;;;;1.23;1.17;;;22.40;99.90;;;;;;5020559;28;20465;-83
2023/09/15 10:02:39;;;;;;;0.80;0.80;;;22.40;99.90;;;;;;5018729;28;20430;-83
2023/09/15 10:05:07;;;;;;;0.80;0.80;;;22.30;99.90;;;;;;5008190;28;20780;-82
2023/09/15 10:07:36;;;;;;;1.33;1.23;;;22.30;99.90;;;;;;5013019;28;20497;-84
2023/09/15 10:10:06;;;;;;;1.27;1.23;;;22.50;99.90;;;;;;5011230;28;20705;-83
2023/09/15 10:12:36;;;;;;;0.90;0.90;;;22.80;99.90;;;;;;5011603;28;20506;-83
2023/09/15 10:15:07;;;;;;;0.70;0.70;;;22.50;99.90;;;;;;5025613;28;20423;-82
2023/09/15 10:17:35;;;;;;;1.10;1.10;;;22.00;99.90;;;;;;4999311;28;20426;-83
2023/09/15 10:20:02;;;;;;;1.63;1.53;;;21.70;99.90;;;;;;5027672;28;20418;-83
2023/09/15 10:22:31;;;;;;;0.93;0.93;;;21.10;99.90;;;;;;5015832;28;20506;-82
2023/09/15 10:25:00;;;;;;;0.97;0.97;;;21.10;99.90;;;;;;5013733;28;20490;-84
2023/09/15 10:27:27;;;;;;;1.50;1.40;;;21.00;99.90;;;;;;5020587;28;20428;-80
2023/09/15 10:30:01;;;;;;;0.80;0.80;;;21.10;99.90;;;;;;5010774;28;20459;-85
2023/09/15 10:32:39;;;;;;;2.30;2.20;;;21.30;99.90;;;;;;5025541;28;20465;-85
2023/09/15 10:35:07;;;;;;;1.10;1.10;;;21.30;99.90;;;;;;5018251;28;20442;-79
2023/09/15 10:37:42;;;;;;;0.80;0.80;;;21.60;99.90;;;;;;5025411;28;20440;-85
2023/09/15 10:40:10;;;;;;;1.70;1.60;;;21.70;99.90;;;;;;5020254;28;20417;-85
2023/09/15 10:42:51;;;;;;;0.70;0.70;;;22.10;99.90;;;;;;5023214;28;20473;-79
2023/09/15 10:45:18;;;;;;;1.73;1.60;;;22.50;99.90;;;;;;5020027;28;20730;-78
2023/09/15 10:47:55;;;;;;;0.70;0.70;;;22.20;99.90;;;;;;5017530;28;20485;-82
2023/09/15 10:50:37;;;;;;;0.80;0.80;;;22.00;99.90;;;;;;5016600;28;20426;-86
2023/09/15 10:53:11;;;;;;;1.00;1.00;;;22.20;99.90;;;;;;5026774;28;20507;-82
2023/09/15 10:55:40;;;;;;;0.70;0.70;;;22.30;99.90;;;;;;5016304;28;20484;-86
2023/09/15 10:58:08;;;;;;;0.70;0.70;;;22.00;99.90;;;;;;5019954;28;20579;-86
2023/09/15 11:00:38;;;;;;;1.20;1.20;;;22.30;99.90;;;;;;5021889;28;20449;-83
2023/09/15 11:03:06;;;;;;;1.43;1.07;;;22.10;99.90;;;;;;5033777;28;20463;-81
2023/09/15 11:05:35;;;;;;;1.10;1.10;;;22.20;99.90;;;;;;5022312;28;20431;-82
2023/09/15 11:08:04;;;;;;;1.63;1.53;;;22.40;99.90;;;;;;5020681;28;20439;-85
2023/09/15 11:10:34;;;;;;;1.60;1.50;;;21.70;99.90;;;;;;5014480;28;20540;-83
2023/09/15 11:13:03;;;;;;;1.77;1.67;;;21.60;99.90;;;;;;5022985;28;20422;-84
2023/09/15 11:15:31;;;;;;;1.27;1.20;;;22.10;99.90;;;;;;5030483;28;21000;-81
2023/09/15 11:17:59;;;;;;;3.37;2.50;;;22.30;99.90;;;;;;5027777;28;20445;-81
2023/09/15 11:20:27;;;;;;;0.70;0.70;;;22.50;99.90;;;;;;5013268;28;20734;-84
2023/09/15 11:22:56;;;;;;;2.20;2.00;;;22.70;99.90;;;;;;5019945;28;20601;-81
2023/09/15 11:25:23;;;;;;;0.70;0.70;;;22.30;99.90;;;;;;5024118;28;20842;-84
2023/09/15 11:27:50;;;;;;;0.80;0.80;;;22.60;99.90;;;;;;5021909;28;20662;-80
2023/09/15 11:30:18;;;;;;;0.87;0.87;;;22.60;99.90;;;;;;5020328;28;20987;-86
2023/09/15 11:32:47;;;;;;;0.80;0.80;;;22.70;99.90;;;;;;5025846;28;20804;-86
2023/09/15 11:35:15;;;;;;;0.70;0.70;;;23.10;99.90;;;;;;5024166;28;20442;-80
2023/09/15 11:37:42;;;;;;;0.70;0.70;;;23.20;99.90;;;;;;5024884;28;20752;-84
2023/09/15 11:40:19;;;;;;;0.70;0.70;;;23.00;99.90;;;;;;5024162;28;20590;-77
2023/09/15 11:42:55;;;;;;;0.80;0.80;;;22.80;99.90;;;;;;5021519;28;20413;-86
2023/09/15 11:45:25;;;;;;;0.80;0.80;;;22.60;99.90;;;;;;5016874;28;20524;-82
2023/09/15 11:47:56;;;;;;;1.20;1.20;;;21.80;99.90;;;;;;5018592;28;20618;-85
2023/09/15 11:50:25;;;;;;;1.13;1.13;;;21.80;99.90;;;;;;5015127;28;20972;-83
2023/09/15 11:52:53;;;;;;;0.70;0.70;;;21.60;99.90;;;;;;5020929;28;20436;-82
2023/09/15 11:55:21;;;;;;;0.70;0.70;;;21.50;99.90;;;;;;5024842;28;20852;-82
2023/09/15 11:57:50;;;;;;;0.70;0.70;;;21.50;99.90;;;;;;5017874;28;20457;-85
2023/09/15 12:00:22;;;;;;;0.90;0.90;;;21.90;99.90;;;;;;5025733;28;20793;-80
2023/09/15 12:02:49;;;;;;;0.70;0.70;;;22.30;99.90;;;;;;5021009;28;20512;-82
2023/09/15 12:05:20;;;;;;;0.70;0.70;;;22.50;99.90;;;;;;5015921;28;20543;-79
2023/09/15 12:07:47;;;;;;;0.70;0.70;;;22.80;99.90;;;;;;5021225;28;20496;-82
2023/09/15 12:10:27;;;;;;;1.00;1.00;;;22.50;99.90;;;;;;5012664;28;20421;-84
2023/09/15 12:12:59;;;;;;;0.70;0.70;;;22.50;99.90;;;;;;5015648;28;20732;-85
2023/09/15 12:15:27;;;;;;;0.80;0.80;;;22.70;99.90;;;;;;5016394;28;20481;-79
2023/09/15 12:17:56;;;;;;;1.00;1.00;;;22.20;99.90;;;;;;5017353;28;20451;-82
2023/09/15 12:20:23;;;;;;;0.80;0.80;;;22.20;99.90;;;;;;5017521;28;21154;-82
2023/09/15 12:22:53;;;;;;;0.90;0.90;;;22.50;99.90;;;;;;5029174;28;20467;-84
2023/09/15 12:25:24;;;;;;;1.00;1.00;;;22.50;99.90;;;;;;5033158;28;20470;-83
2023/09/15 12:27:52;;;;;;;1.10;1.10;;;22.20;99.90;;;;;;5023228;28;20469;-79
2023/09/15 12:30:20;;;;;;;1.30;1.20;;;21.90;99.90;;;;;;5000815;28;20485;-83
2023/09/15 12:32:47;;;;;;;0.80;0.80;;;21.80;99.90;;;;;;5028187;28;20777;-82
2023/09/15 12:35:15;;;;;;;1.13;1.13;;;21.80;99.90;;;;;;5019586;28;20453;-83
2023/09/15 12:37:44;;;;;;;0.80;0.80;;;21.70;99.90;;;;;;5021990;28;20805;-77
2023/09/15 12:40:12;;;;;;;1.60;1.50;;;21.60;99.90;;;;;;5014730;28;20417;-85
2023/09/15 12:42:43;;;;;;;0.60;0.60;;;22.00;99.90;;;;;;5020710;28;20430;-84
2023/09/15 12:45:10;;;;;;;0.70;0.70;;;22.20;99.90;;;;;;5005388;28;20479;-82
2023/09/15 12:47:39;;;;;;;0.70;0.70;;;22.40;99.90;;;;;;5015335;28;20462;-82
2023/09/15 12:50:07;;;;;;;0.80;0.80;;;22.20;99.90;;;;;;5019679;28;20657;-78
2023/09/15 12:52:37;;;;;;;0.70;0.70;;;21.90;99.90;;;;;;5028889;28;20421;-82
2023/09/15 12:55:05;;;;;;;0.80;0.80;;;22.10;99.90;;;;;;5022352;28;20450;-84
2023/09/15 12:57:32;;;;;;;1.10;1.10;;;22.00;99.90;;;;;;5014187;28;20496;-85